createdAt,value
2024-03-26T00:01:41.214Z,27.70
2024-03-26T00:04:09.400Z,27.20
2024-03-26T00:06:37.339Z,26.90
2024-03-26T00:09:05.447Z,28.30
2024-03-26T00:11:33.397Z,27.70
2024-03-26T00:14:01.368Z,29.00
2024-03-26T00:16:29.462Z,28.30
2024-03-26T00:18:57.398Z,28.70
2024-03-26T00:21:25.266Z,24.20
2024-03-26T00:23:53.262Z,22.80
2024-03-26T00:26:21.503Z,23.70
2024-03-26T00:28:49.363Z,25.10
2024-03-26T00:31:17.446Z,29.60
2024-03-26T00:33:45.589Z,30.70
2024-03-26T00:36:13.585Z,29.70
2024-03-26T00:38:41.571Z,31.20
2024-03-26T00:41:09.518Z,30.80
2024-03-26T00:43:37.591Z,32.10
2024-03-26T00:46:05.566Z,31.60
2024-03-26T00:48:33.633Z,32.10
2024-03-26T00:51:01.707Z,31.90
2024-03-26T00:53:29.677Z,30.70
2024-03-26T00:55:57.749Z,29.80
2024-03-26T00:58:25.750Z,28.00
2024-03-26T01:00:54.611Z,27.60
2024-03-26T01:03:22.471Z,26.90
2024-03-26T01:05:59.959Z,27.00
2024-03-26T01:08:28.053Z,26.00
2024-03-26T01:10:56.551Z,24.70
2024-03-26T01:13:24.783Z,26.00
2024-03-26T01:15:53.281Z,26.10
2024-03-26T01:18:21.131Z,26.00
2024-03-26T01:20:49.200Z,25.30
2024-03-26T01:23:17.284Z,25.70
2024-03-26T01:25:45.145Z,25.60
2024-03-26T01:28:13.170Z,26.40
2024-03-26T01:30:41.282Z,25.40
2024-03-26T01:33:09.151Z,27.60
2024-03-26T01:35:38.174Z,25.20
2024-03-26T01:38:06.105Z,25.00
2024-03-26T01:40:34.075Z,24.70
2024-03-26T01:43:02.073Z,25.00
2024-03-26T01:45:31.240Z,26.80
2024-03-26T01:47:59.312Z,25.80
2024-03-26T01:50:28.340Z,24.70
2024-03-26T01:52:56.894Z,25.30
2024-03-26T01:55:26.405Z,24.30
2024-03-26T01:57:54.592Z,24.70
2024-03-26T02:00:25.778Z,23.00
2024-03-26T02:02:54.195Z,23.70
2024-03-26T02:05:22.696Z,23.50
2024-03-26T02:07:51.162Z,23.50
2024-03-26T02:10:20.454Z,24.40
2024-03-26T02:12:48.440Z,24.30
2024-03-26T02:15:16.388Z,23.80
2024-03-26T02:17:44.358Z,23.00
2024-03-26T02:20:13.766Z,21.80
2024-03-26T02:22:41.837Z,23.20
2024-03-26T02:25:09.837Z,22.40
2024-03-26T02:27:37.666Z,22.30
2024-03-26T02:30:06.563Z,21.70
2024-03-26T02:32:34.563Z,21.60
2024-03-26T02:35:02.492Z,22.40
2024-03-26T02:37:30.465Z,21.60
2024-03-26T02:39:58.357Z,21.20
2024-03-26T02:42:26.305Z,20.60
2024-03-26T02:44:54.267Z,21.20
2024-03-26T02:47:22.662Z,20.10
2024-03-26T02:49:50.724Z,19.40
2024-03-26T02:52:18.838Z,21.20
2024-03-26T02:54:46.862Z,22.00
2024-03-26T02:57:14.809Z,21.30
2024-03-26T02:59:42.830Z,20.20
2024-03-26T03:02:11.073Z,20.60
2024-03-26T03:04:39.048Z,18.40
2024-03-26T03:07:07.037Z,19.30
2024-03-26T03:09:35.184Z,18.00
2024-03-26T03:12:03.150Z,17.30
2024-03-26T03:14:31.338Z,16.70
2024-03-26T03:16:59.234Z,16.70
2024-03-26T03:19:27.366Z,17.10
2024-03-26T03:21:55.441Z,16.90
2024-03-26T03:24:23.518Z,16.40
2024-03-26T03:26:51.481Z,15.60
2024-03-26T03:29:19.347Z,16.00
2024-03-26T03:31:47.511Z,17.30
2024-03-26T03:34:15.393Z,16.40
2024-03-26T03:36:43.349Z,16.50
2024-03-26T03:39:11.214Z,16.70
2024-03-26T03:41:39.280Z,15.20
2024-03-26T03:44:07.260Z,16.10
2024-03-26T03:46:35.223Z,15.80
2024-03-26T03:49:03.513Z,16.00
2024-03-26T03:51:31.595Z,16.50
2024-03-26T03:53:59.654Z,16.20
2024-03-26T03:56:27.819Z,16.80
2024-03-26T03:58:55.896Z,17.90
2024-03-26T04:01:23.752Z,17.60
2024-03-26T04:03:51.618Z,18.90
2024-03-26T04:06:19.697Z,20.70
2024-03-26T04:08:47.664Z,22.40
2024-03-26T04:11:15.771Z,24.80
2024-03-26T04:13:43.650Z,22.40
2024-03-26T04:16:11.986Z,22.50
2024-03-26T04:18:39.943Z,22.30
2024-03-26T04:21:10.367Z,23.70
2024-03-26T04:23:38.649Z,22.20
2024-03-26T04:26:06.828Z,23.60
2024-03-26T04:28:34.801Z,23.30
2024-03-26T04:31:03.571Z,22.60
2024-03-26T04:33:32.093Z,21.50
2024-03-26T04:36:00.037Z,19.50
2024-03-26T04:38:27.994Z,20.30
2024-03-26T04:40:55.959Z,19.30
2024-03-26T04:43:23.826Z,19.00
2024-03-26T04:45:53.695Z,18.70
2024-03-26T04:48:21.919Z,18.20
2024-03-26T04:50:50.008Z,18.20
2024-03-26T04:53:17.907Z,17.70
2024-03-26T04:55:47.078Z,17.30
2024-03-26T04:58:14.919Z,18.50
2024-03-26T05:00:42.782Z,18.10
2024-03-26T05:03:10.966Z,16.90
2024-03-26T05:05:39.047Z,16.90
2024-03-26T05:08:07.026Z,18.20
2024-03-26T05:10:35.573Z,17.00
2024-03-26T05:13:03.646Z,17.00
2024-03-26T05:15:34.838Z,18.10
2024-03-26T05:18:02.888Z,17.50
2024-03-26T05:20:30.831Z,17.20
2024-03-26T05:22:58.916Z,17.40
2024-03-26T05:25:26.874Z,18.10
2024-03-26T05:27:54.941Z,19.00
2024-03-26T05:30:22.915Z,18.70
2024-03-26T05:32:52.275Z,19.70
2024-03-26T05:35:20.409Z,17.30
2024-03-26T05:37:48.759Z,18.50
2024-03-26T05:40:17.489Z,17.90
2024-03-26T05:42:45.535Z,18.30
2024-03-26T05:45:13.498Z,16.70
2024-03-26T05:47:41.705Z,17.10
2024-03-26T05:50:10.055Z,18.00
2024-03-26T05:52:38.108Z,17.30
2024-03-26T05:55:06.794Z,18.30
2024-03-26T05:57:34.795Z,18.60
2024-03-26T06:00:02.934Z,17.30
2024-03-26T06:02:32.368Z,17.40
2024-03-26T06:05:00.544Z,17.90
2024-03-26T06:07:28.582Z,19.10
2024-03-26T06:09:56.614Z,18.10
2024-03-26T06:12:25.360Z,18.20
2024-03-26T06:14:53.336Z,17.00
2024-03-26T06:17:21.293Z,17.60
2024-03-26T06:19:50.693Z,18.50
2024-03-26T06:22:18.753Z,18.90
2024-03-26T06:24:46.720Z,17.50
2024-03-26T06:27:14.694Z,17.60
2024-03-26T06:29:42.865Z,17.70
2024-03-26T06:32:10.860Z,17.70
2024-03-26T06:34:40.041Z,16.50
2024-03-26T06:37:09.128Z,17.10
2024-03-26T06:39:37.012Z,17.80
2024-03-26T06:42:05.063Z,17.30
2024-03-26T06:44:33.341Z,17.50
2024-03-26T06:47:01.419Z,16.70
2024-03-26T06:49:29.279Z,18.40
2024-03-26T06:51:57.186Z,19.90
2024-03-26T06:54:25.324Z,18.50
2024-03-26T06:56:53.180Z,18.10
2024-03-26T06:59:21.389Z,16.90
2024-03-26T07:01:49.230Z,18.00
2024-03-26T07:04:17.199Z,16.90
2024-03-26T07:06:46.419Z,18.30
2024-03-26T07:09:14.356Z,18.90
2024-03-26T07:11:43.146Z,18.10
2024-03-26T07:14:14.094Z,17.80
2024-03-26T07:16:41.960Z,17.90
2024-03-26T07:19:09.999Z,17.70
2024-03-26T07:21:39.936Z,16.90
2024-03-26T07:31:47.174Z,16.00
2024-03-26T07:34:16.881Z,13.90
2024-03-26T07:36:44.768Z,13.50
2024-03-26T07:39:16.719Z,13.60
2024-03-26T07:41:46.156Z,15.00
2024-03-26T07:44:15.308Z,14.20
2024-03-26T07:46:45.430Z,14.20
2024-03-26T07:49:13.582Z,13.70
2024-03-26T07:51:41.767Z,13.50
2024-03-26T07:54:10.770Z,14.20
2024-03-26T07:56:38.947Z,14.30
2024-03-26T07:59:06.822Z,13.90
2024-03-26T08:01:35.298Z,14.30
2024-03-26T08:04:03.673Z,13.80
2024-03-26T08:06:31.803Z,13.00
2024-03-26T08:09:00.037Z,13.40
2024-03-26T08:11:28.388Z,13.90
2024-03-26T08:13:56.503Z,14.20
2024-03-26T08:16:24.444Z,15.00
2024-03-26T08:18:52.606Z,13.30
2024-03-26T08:21:20.563Z,13.30
2024-03-26T08:23:49.192Z,19.70
2024-03-26T08:26:17.127Z,14.30
2024-03-26T08:28:45.114Z,14.90
2024-03-26T08:31:13.168Z,14.90
2024-03-26T08:33:41.231Z,15.20
2024-03-26T08:36:09.424Z,14.70
2024-03-26T08:38:37.380Z,14.90
2024-03-26T08:41:05.482Z,15.40
2024-03-26T08:43:33.624Z,14.60
2024-03-26T08:46:01.793Z,15.70
2024-03-26T08:48:29.788Z,16.80
2024-03-26T08:50:57.775Z,16.80
2024-03-26T08:53:26.216Z,15.80
2024-03-26T08:55:54.480Z,16.60
2024-03-26T08:58:24.815Z,18.70
2024-03-26T09:00:52.833Z,17.70
2024-03-26T09:03:20.765Z,16.70
2024-03-26T09:05:49.233Z,16.10
2024-03-26T09:08:17.141Z,18.00
2024-03-26T09:10:47.131Z,17.60
2024-03-26T09:13:14.884Z,18.60
2024-03-26T09:15:42.739Z,17.50
2024-03-26T09:18:10.652Z,16.80
2024-03-26T09:20:38.586Z,16.50
2024-03-26T09:23:06.472Z,15.20
2024-03-26T09:25:34.618Z,14.60
2024-03-26T09:28:02.616Z,16.20
2024-03-26T09:30:31.194Z,16.90
2024-03-26T09:32:59.331Z,16.20
2024-03-26T09:35:27.535Z,17.00
2024-03-26T09:37:55.394Z,17.20
2024-03-26T09:40:23.403Z,15.40
2024-03-26T09:42:53.070Z,15.70
2024-03-26T09:45:21.774Z,13.10
2024-03-26T09:47:50.683Z,12.50
2024-03-26T09:50:20.460Z,12.70
2024-03-26T09:52:50.267Z,11.90
2024-03-26T09:55:19.963Z,11.70
2024-03-26T09:57:48.157Z,11.00
2024-03-26T10:00:17.158Z,11.80
2024-03-26T10:02:47.117Z,11.10
2024-03-26T10:05:19.021Z,11.80
2024-03-26T10:07:48.163Z,11.10
2024-03-26T10:10:17.036Z,10.30
2024-03-26T10:12:45.233Z,11.40
2024-03-26T10:15:13.359Z,10.40
2024-03-26T10:17:41.334Z,10.40
2024-03-26T10:20:10.237Z,10.40
2024-03-26T10:22:38.787Z,9.80
2024-03-26T10:25:07.738Z,10.10
2024-03-26T10:27:35.695Z,9.00
2024-03-26T10:30:09.276Z,8.90
2024-03-26T10:32:38.173Z,8.60
2024-03-26T10:35:09.724Z,9.10
2024-03-26T10:37:38.585Z,8.30
2024-03-26T10:40:10.346Z,9.20
2024-03-26T10:42:48.041Z,9.50
2024-03-26T10:45:32.272Z,11.60
2024-03-26T10:48:08.109Z,11.20
2024-03-26T10:50:37.164Z,9.10
2024-03-26T10:53:06.327Z,10.40
2024-03-26T10:55:35.831Z,9.50
2024-03-26T10:58:04.341Z,9.10
2024-03-26T11:00:35.671Z,9.00
2024-03-26T11:03:04.222Z,8.50
2024-03-26T11:05:32.728Z,8.40
2024-03-26T11:08:01.430Z,9.00
2024-03-26T11:10:29.590Z,9.10
2024-03-26T11:12:59.298Z,8.30
2024-03-26T11:15:29.532Z,7.70
2024-03-26T11:18:04.368Z,8.20
2024-03-26T11:20:33.861Z,8.50
2024-03-26T11:23:06.484Z,8.40
2024-03-26T11:25:35.526Z,8.20
2024-03-26T11:28:04.785Z,7.30
2024-03-26T11:30:34.795Z,8.10
2024-03-26T11:33:03.038Z,8.30
2024-03-26T11:35:31.435Z,7.50
2024-03-26T11:38:03.665Z,8.20
2024-03-26T11:40:32.762Z,8.20
2024-03-26T11:43:01.480Z,8.80
2024-03-26T11:45:29.411Z,8.60
2024-03-26T11:47:58.646Z,8.70
2024-03-26T11:50:26.792Z,9.10
2024-03-26T11:52:55.366Z,8.20
2024-03-26T11:55:23.463Z,9.20
2024-03-26T11:57:52.023Z,8.90
2024-03-26T12:00:20.811Z,8.20
2024-03-26T12:02:49.310Z,8.60
2024-03-26T12:05:17.264Z,7.60
2024-03-26T12:07:46.175Z,8.10
2024-03-26T12:10:14.120Z,8.00
2024-03-26T12:12:42.187Z,6.60
2024-03-26T12:15:13.666Z,6.60
2024-03-26T12:17:41.916Z,5.80
2024-03-26T12:20:13.371Z,5.30
2024-03-26T12:22:41.870Z,6.70
2024-03-26T12:25:11.051Z,6.60
2024-03-26T12:27:46.089Z,5.80
2024-03-26T12:30:15.479Z,5.10
2024-03-26T12:32:43.354Z,5.20
2024-03-26T12:35:11.319Z,5.20
2024-03-26T12:37:42.798Z,5.00
2024-03-26T12:40:15.035Z,5.10
2024-03-26T12:42:43.216Z,5.90
2024-03-26T12:45:11.149Z,4.50
2024-03-26T12:47:39.256Z,4.10
2024-03-26T12:50:07.989Z,4.30
2024-03-26T12:52:41.058Z,4.30
2024-03-26T12:55:09.204Z,4.00
2024-03-26T12:57:37.992Z,4.60
2024-03-26T13:00:07.009Z,4.50
2024-03-26T13:02:35.054Z,4.50
2024-03-26T13:05:03.250Z,5.10
2024-03-26T13:07:31.311Z,4.40
2024-03-26T13:09:59.482Z,4.40
2024-03-26T13:12:27.463Z,5.00
2024-03-26T13:14:55.405Z,4.10
2024-03-26T13:17:23.519Z,2.90
2024-03-26T13:19:55.499Z,3.10
2024-03-26T13:22:24.737Z,3.40
2024-03-26T13:24:52.749Z,4.60
2024-03-26T13:27:20.577Z,5.30
2024-03-26T13:29:48.643Z,6.00
2024-03-26T13:32:19.589Z,5.60
2024-03-26T13:34:47.867Z,4.70
2024-03-26T13:37:15.853Z,4.80
2024-03-26T13:39:44.000Z,4.50
2024-03-26T13:42:12.067Z,4.70
2024-03-26T13:44:39.964Z,3.50
2024-03-26T13:47:08.720Z,3.60
2024-03-26T13:49:36.685Z,3.70
2024-03-26T13:52:04.869Z,3.40
2024-03-26T13:54:34.368Z,3.40
2024-03-26T13:57:02.773Z,2.90
2024-03-26T13:59:30.913Z,2.90
2024-03-26T14:01:59.132Z,2.80
2024-03-26T14:04:27.175Z,2.90
2024-03-26T14:06:55.239Z,2.60
2024-03-26T14:09:23.526Z,2.70
2024-03-26T14:11:51.482Z,2.10
2024-03-26T14:14:19.584Z,2.20
2024-03-26T14:16:47.533Z,2.00
2024-03-26T14:19:16.062Z,1.80
2024-03-26T14:21:43.987Z,2.60
2024-03-26T14:24:11.949Z,2.70
2024-03-26T14:26:40.142Z,2.40
2024-03-26T14:29:07.985Z,3.50
2024-03-26T14:31:37.023Z,3.30
2024-03-26T14:34:04.951Z,2.20
2024-03-26T14:36:33.734Z,2.50
2024-03-26T14:39:01.667Z,1.90
2024-03-26T14:41:30.490Z,2.30
2024-03-26T14:44:01.185Z,1.90
2024-03-26T14:46:29.521Z,2.10
2024-03-26T14:48:57.465Z,2.20
2024-03-26T14:51:25.474Z,2.30
2024-03-26T14:53:53.505Z,2.40
2024-03-26T14:56:21.579Z,2.90
2024-03-26T14:58:50.287Z,2.40
2024-03-26T15:01:18.229Z,2.50
2024-03-26T15:03:46.352Z,2.80
2024-03-26T15:06:17.350Z,4.00
2024-03-26T15:08:46.027Z,3.40
2024-03-26T15:11:14.025Z,2.40
2024-03-26T15:13:42.688Z,2.20
2024-03-26T15:16:16.094Z,2.20
2024-03-26T15:18:44.976Z,2.50
2024-03-26T15:21:13.169Z,2.60
2024-03-26T15:23:41.775Z,2.20
2024-03-26T15:26:09.799Z,2.30
2024-03-26T15:28:56.648Z,2.50
2024-03-26T15:31:43.468Z,2.30
2024-03-26T15:34:11.397Z,2.10
2024-03-26T15:36:40.016Z,2.20
2024-03-26T15:39:09.460Z,2.10
2024-03-26T15:41:37.441Z,2.20
2024-03-26T15:44:05.628Z,2.30
2024-03-26T15:46:44.303Z,2.10
2024-03-26T15:49:16.204Z,2.50
2024-03-26T15:51:44.982Z,2.50
2024-03-26T15:54:13.525Z,2.50
2024-03-26T15:56:41.438Z,2.70
2024-03-26T15:59:09.405Z,3.30
2024-03-26T16:01:37.510Z,3.10
2024-03-26T16:04:07.090Z,2.90
2024-03-26T16:06:34.949Z,2.80
2024-03-26T16:09:04.063Z,3.00
2024-03-26T16:11:33.366Z,2.80
2024-03-26T16:14:02.693Z,2.90
2024-03-26T16:16:30.738Z,2.50
2024-03-26T16:18:58.692Z,2.60
2024-03-26T16:21:26.692Z,2.90
2024-03-26T16:23:54.730Z,3.20
2024-03-26T16:26:22.800Z,2.90
2024-03-26T16:28:57.844Z,3.00
2024-03-26T16:31:26.926Z,2.90
2024-03-26T16:33:54.892Z,3.20
2024-03-26T16:36:22.883Z,3.40
2024-03-26T16:38:51.034Z,3.30
2024-03-26T16:41:36.467Z,3.00
2024-03-26T16:44:04.479Z,3.40
2024-03-26T16:46:32.580Z,3.30
2024-03-26T16:49:00.520Z,3.70
2024-03-26T16:51:28.628Z,3.00
2024-03-26T16:53:56.670Z,3.80
2024-03-26T16:56:25.965Z,3.80
2024-03-26T16:58:53.953Z,3.80
2024-03-26T17:01:23.108Z,4.30
2024-03-26T17:03:51.102Z,4.00
2024-03-26T17:06:19.089Z,4.50
2024-03-26T17:08:47.257Z,3.90
2024-03-26T17:11:16.134Z,4.20
2024-03-26T17:13:44.107Z,4.20
2024-03-26T17:16:12.074Z,3.60
2024-03-26T17:18:40.072Z,4.20
2024-03-26T17:21:08.119Z,4.30
2024-03-26T17:23:36.178Z,4.30
2024-03-26T17:26:04.571Z,4.60
2024-03-26T17:28:33.243Z,4.60
2024-03-26T17:31:01.264Z,4.50
2024-03-26T17:33:29.391Z,4.80
2024-03-26T17:35:57.304Z,5.30
2024-03-26T17:38:25.599Z,5.50
2024-03-26T17:40:54.024Z,5.90
2024-03-26T17:43:22.795Z,6.00
2024-03-26T17:45:52.105Z,7.00
2024-03-26T17:48:19.941Z,6.50
2024-03-26T17:50:55.672Z,6.60
2024-03-26T17:53:23.609Z,7.50
2024-03-26T17:55:51.752Z,8.60
2024-03-26T17:58:20.100Z,8.20
2024-03-26T18:00:48.944Z,10.50
2024-03-26T18:03:18.056Z,9.60
2024-03-26T18:05:46.187Z,10.50
2024-03-26T18:08:14.068Z,9.90
2024-03-26T18:10:43.054Z,8.80
2024-03-26T18:13:12.186Z,8.40
2024-03-26T18:15:40.118Z,7.70
2024-03-26T18:18:08.599Z,8.40
2024-03-26T18:20:37.620Z,7.70
2024-03-26T18:23:05.566Z,7.30
2024-03-26T18:25:33.636Z,8.20
2024-03-26T18:28:05.257Z,7.80
2024-03-26T18:30:33.769Z,7.90
2024-03-26T18:33:01.837Z,8.50
2024-03-26T18:35:30.244Z,8.20
2024-03-26T18:37:58.283Z,8.40
2024-03-26T18:40:26.250Z,8.00
2024-03-26T18:42:54.117Z,7.90
2024-03-26T18:45:22.200Z,7.90
2024-03-26T18:47:50.275Z,8.00
2024-03-26T18:50:18.235Z,8.30
2024-03-26T18:52:46.233Z,8.90
2024-03-26T18:55:14.166Z,9.50
2024-03-26T18:57:42.243Z,9.40
2024-03-26T19:00:11.084Z,8.30
2024-03-26T19:02:42.585Z,8.60
2024-03-26T19:05:12.515Z,8.00
2024-03-26T19:07:40.676Z,7.60
2024-03-26T19:10:09.470Z,9.10
2024-03-26T19:12:37.451Z,8.60
2024-03-26T19:15:06.727Z,8.60
2024-03-26T19:17:35.097Z,10.50
2024-03-26T19:20:03.606Z,10.50
2024-03-26T19:22:31.544Z,9.50
2024-03-26T19:24:59.614Z,9.40
2024-03-26T19:27:27.595Z,9.00
2024-03-26T19:29:55.760Z,8.00
2024-03-26T19:32:23.638Z,8.40
2024-03-26T19:34:52.844Z,8.50
2024-03-26T19:37:20.825Z,8.60
2024-03-26T19:39:48.977Z,8.30
2024-03-26T19:42:16.961Z,8.20
2024-03-26T19:44:47.772Z,8.40
2024-03-26T19:47:15.638Z,8.50
2024-03-26T19:49:43.710Z,8.30
2024-03-26T19:52:12.088Z,7.90
2024-03-26T19:54:40.058Z,8.60
2024-03-26T19:57:08.047Z,8.40
2024-03-26T19:59:36.913Z,8.60
2024-03-26T20:02:04.931Z,8.70
2024-03-26T20:04:32.963Z,8.70
2024-03-26T20:07:01.026Z,9.30
2024-03-26T20:09:29.120Z,8.60
2024-03-26T20:11:57.070Z,8.80
2024-03-26T20:14:25.245Z,8.90
2024-03-26T20:16:53.939Z,9.00
2024-03-26T20:19:22.098Z,9.60
2024-03-26T20:21:50.274Z,9.20
2024-03-26T20:24:18.243Z,9.40
2024-03-26T20:26:46.725Z,8.60
2024-03-26T20:29:14.820Z,8.50
2024-03-26T20:31:43.181Z,8.50
2024-03-26T20:34:11.081Z,8.30
2024-03-26T20:36:39.019Z,11.70
2024-03-26T20:39:10.356Z,10.10
2024-03-26T20:41:38.867Z,10.40
2024-03-26T20:44:07.015Z,10.30
2024-03-26T20:46:35.049Z,10.00
2024-03-26T20:49:02.945Z,9.10
2024-03-26T20:51:30.842Z,9.30
2024-03-26T20:53:58.781Z,9.90
2024-03-26T20:56:26.759Z,9.70
2024-03-26T20:58:56.050Z,9.10
2024-03-26T21:01:24.021Z,8.60
2024-03-26T21:03:52.021Z,9.20
2024-03-26T21:06:20.389Z,10.00
2024-03-26T21:08:48.587Z,9.70
2024-03-26T21:11:17.334Z,9.00
2024-03-26T21:13:45.298Z,9.20
2024-03-26T21:16:14.751Z,9.60
2024-03-26T21:18:49.151Z,8.90
2024-03-26T21:21:18.844Z,8.90
2024-03-26T21:23:48.730Z,8.80
2024-03-26T21:26:18.959Z,10.20
2024-03-26T21:28:47.699Z,9.20
2024-03-26T21:31:15.841Z,9.20
2024-03-26T21:33:44.197Z,10.00
2024-03-26T21:36:12.818Z,10.80
2024-03-26T21:38:40.997Z,10.00
2024-03-26T21:41:09.303Z,10.80
2024-03-26T21:43:37.533Z,10.40
2024-03-26T21:46:05.511Z,10.60
2024-03-26T21:48:33.755Z,9.40
2024-03-26T21:51:03.151Z,10.10
2024-03-26T21:53:31.135Z,10.20
2024-03-26T21:56:10.519Z,10.10
2024-03-26T21:58:39.553Z,10.10
2024-03-26T22:01:12.079Z,9.70
2024-03-26T22:03:40.832Z,9.20
2024-03-26T22:06:12.899Z,9.90
2024-03-26T22:08:42.281Z,9.40
2024-03-26T22:11:12.940Z,8.90
2024-03-26T22:13:41.874Z,9.40
2024-03-26T22:16:10.386Z,9.40
2024-03-26T22:18:38.364Z,9.30
2024-03-26T22:21:06.216Z,10.00
2024-03-26T22:23:34.194Z,9.30
2024-03-26T22:26:05.336Z,9.60
2024-03-26T22:28:33.718Z,9.40
2024-03-26T22:31:06.941Z,9.60
2024-03-26T22:33:38.281Z,9.00
2024-03-26T22:36:10.319Z,8.70
2024-03-26T22:38:38.489Z,9.00
2024-03-26T22:41:06.887Z,9.10
2024-03-26T22:43:35.059Z,8.60
2024-03-26T22:46:04.918Z,8.80
2024-03-26T22:48:33.047Z,8.50
2024-03-26T22:51:01.813Z,8.90
2024-03-26T22:53:29.872Z,8.30
2024-03-26T22:56:03.507Z,9.20
2024-03-26T22:58:33.836Z,8.40
2024-03-26T23:01:08.237Z,8.80
2024-03-26T23:03:36.445Z,9.40
2024-03-26T23:06:05.710Z,9.20
2024-03-26T23:08:33.773Z,8.20
2024-03-26T23:11:01.875Z,9.60
2024-03-26T23:13:30.122Z,8.70
2024-03-26T23:16:04.298Z,8.40
2024-03-26T23:18:32.927Z,8.40
2024-03-26T23:21:00.991Z,8.90
2024-03-26T23:23:29.370Z,8.10
2024-03-26T23:25:57.376Z,9.00
2024-03-26T23:28:25.512Z,8.60
2024-03-26T23:30:53.581Z,9.10
2024-03-26T23:33:21.492Z,8.40
2024-03-26T23:35:50.043Z,9.00
2024-03-26T23:38:18.002Z,9.70
2024-03-26T23:40:45.995Z,9.40
2024-03-26T23:43:13.944Z,9.20
2024-03-26T23:45:42.229Z,9.40
2024-03-26T23:48:10.309Z,8.90
2024-03-26T23:50:38.359Z,9.00
2024-03-26T23:53:06.232Z,8.50
2024-03-26T23:55:34.107Z,8.70
2024-03-26T23:58:01.958Z,9.00
